createdAt,value
2018-09-08T00:02:24.254Z,98443.09
2018-09-08T00:04:56.558Z,98437.79
2018-09-08T00:07:34.641Z,98438.09
2018-09-08T00:10:08.881Z,98444.82
2018-09-08T00:12:41.164Z,98440.50
2018-09-08T00:15:19.174Z,98449.81
2018-09-08T00:17:57.217Z,98441.88
2018-09-08T00:20:35.170Z,98435.86
2018-09-08T00:23:13.077Z,98438.52
2018-09-08T00:25:51.011Z,98437.14
2018-09-08T00:28:28.969Z,98444.23
2018-09-08T00:31:01.784Z,98442.92
2018-09-08T00:33:34.064Z,98443.87
2018-09-08T00:36:06.367Z,98442.21
2018-09-08T00:38:39.018Z,98440.66
2018-09-08T00:41:11.275Z,98433.27
2018-09-08T00:43:43.561Z,98438.20
2018-09-08T00:46:15.812Z,98445.64
2018-09-08T00:48:48.077Z,98452.77
2018-09-08T00:51:20.360Z,98457.00
2018-09-08T00:53:52.649Z,98465.52
2018-09-08T00:56:24.876Z,98464.94
2018-09-08T00:59:02.081Z,98466.09
2018-09-08T01:01:35.471Z,98469.00
2018-09-08T01:04:07.785Z,98466.66
2018-09-08T01:06:40.140Z,98470.78
2018-09-08T01:09:18.065Z,98470.62
2018-09-08T01:11:50.375Z,98471.96
2018-09-08T01:14:22.683Z,98475.11
2018-09-08T01:16:54.928Z,98476.19
2018-09-08T01:19:27.216Z,98480.61
2018-09-08T01:21:59.473Z,98478.76
2018-09-08T01:24:31.816Z,98479.44
2018-09-08T01:27:04.184Z,98484.77
2018-09-08T01:29:36.467Z,98486.08
2018-09-08T01:32:08.753Z,98487.20
2018-09-08T01:34:41.101Z,98483.45
2018-09-08T01:37:13.397Z,98483.60
2018-09-08T01:39:45.709Z,98485.56
2018-09-08T01:42:18.000Z,98478.70
2018-09-08T01:44:57.467Z,98487.86
2018-09-08T01:47:29.972Z,98477.19
2018-09-08T01:50:02.303Z,98492.11
2018-09-08T01:52:34.603Z,98496.97
2018-09-08T01:55:06.920Z,98486.45
2018-09-08T01:57:39.214Z,98482.20
2018-09-08T02:00:11.556Z,98482.72
2018-09-08T02:02:43.812Z,98485.05
2018-09-08T02:05:16.210Z,98490.38
2018-09-08T02:07:48.453Z,98493.34
2018-09-08T02:10:20.769Z,98493.88
2018-09-08T02:12:53.054Z,98490.48
2018-09-08T02:15:25.305Z,98500.09
2018-09-08T02:17:57.574Z,98495.03
2018-09-08T02:20:29.843Z,98502.86
2018-09-08T02:23:02.148Z,98505.42
2018-09-08T02:25:34.457Z,98499.53
2018-09-08T02:28:06.798Z,98503.72
2018-09-08T02:30:39.065Z,98504.61
2018-09-08T02:33:11.380Z,98506.52
2018-09-08T02:35:43.677Z,98507.16
2018-09-08T02:38:16.000Z,98499.75
2018-09-08T02:40:48.298Z,98500.63
2018-09-08T02:43:20.585Z,98505.06
2018-09-08T02:45:52.847Z,98503.30
2018-09-08T02:48:25.204Z,98503.64
2018-09-08T02:50:56.368Z,98502.66
2018-09-08T02:53:27.561Z,98501.16
2018-09-08T02:55:58.749Z,98503.36
2018-09-08T02:58:29.957Z,98508.42
2018-09-08T03:01:01.214Z,98504.21
2018-09-08T03:03:32.408Z,98500.59
2018-09-08T03:06:03.594Z,98506.01
2018-09-08T03:08:34.803Z,98501.47
2018-09-08T03:11:06.017Z,98508.35
2018-09-08T03:13:37.228Z,98510.00
2018-09-08T03:16:08.429Z,98507.18
2018-09-08T03:18:39.629Z,98506.30
2018-09-08T03:21:10.961Z,98507.58
2018-09-08T03:23:42.173Z,98513.30
2018-09-08T03:26:13.324Z,98511.95
2018-09-08T03:28:44.532Z,98514.62
2018-09-08T03:31:15.698Z,98519.05
2018-09-08T03:33:46.868Z,98518.53
2018-09-08T03:36:18.033Z,98517.58
2018-09-08T03:38:49.244Z,98524.88
2018-09-08T03:41:20.428Z,98526.23
2018-09-08T03:43:51.664Z,98523.63
2018-09-08T03:46:22.869Z,98520.36
2018-09-08T03:48:54.029Z,98519.30
2018-09-08T03:51:25.230Z,98517.98
2018-09-08T03:53:56.425Z,98518.86
2018-09-08T03:56:27.664Z,98521.30
2018-09-08T03:58:59.061Z,98524.05
2018-09-08T04:01:30.240Z,98521.09
2018-09-08T04:04:02.575Z,98523.17
2018-09-08T04:06:34.855Z,98523.75
2018-09-08T04:09:09.052Z,98522.20
2018-09-08T04:11:41.324Z,98523.37
2018-09-08T04:14:13.621Z,98526.74
2018-09-08T04:16:45.946Z,98527.52
2018-09-08T04:19:18.192Z,98524.50
2018-09-08T04:21:50.725Z,98529.70
2018-09-08T04:24:22.968Z,98535.22
2018-09-08T04:26:55.314Z,98535.02
2018-09-08T04:29:27.594Z,98535.98
2018-09-08T04:31:59.847Z,98536.47
2018-09-08T04:34:32.177Z,98536.00
2018-09-08T04:37:04.455Z,98535.88
2018-09-08T04:39:36.674Z,98538.46
2018-09-08T04:42:08.930Z,98534.22
2018-09-08T04:44:41.195Z,98542.19
2018-09-08T04:47:13.471Z,98542.48
2018-09-08T04:49:45.735Z,98542.80
2018-09-08T04:52:18.057Z,98541.20
2018-09-08T04:54:50.404Z,98546.92
2018-09-08T04:57:22.678Z,98546.31
2018-09-08T04:59:54.913Z,98551.27
2018-09-08T05:02:27.250Z,98554.52
2018-09-08T05:04:59.508Z,98559.83
2018-09-08T05:07:31.834Z,98561.11
2018-09-08T05:10:04.572Z,98555.51
2018-09-08T05:12:36.941Z,98559.52
2018-09-08T05:15:09.277Z,98559.64
2018-09-08T05:17:41.552Z,98561.91
2018-09-08T05:20:13.836Z,98563.19
2018-09-08T05:22:46.128Z,98563.19
2018-09-08T05:25:18.441Z,98564.38
2018-09-08T05:27:50.757Z,98568.41
2018-09-08T05:30:23.033Z,98576.00
2018-09-08T05:32:55.323Z,98573.36
2018-09-08T05:35:27.595Z,98569.88
2018-09-08T05:37:59.906Z,98575.50
2018-09-08T05:40:32.205Z,98576.77
2018-09-08T05:43:04.599Z,98581.85
2018-09-08T05:45:36.833Z,98578.27
2018-09-08T05:48:09.209Z,98585.23
2018-09-08T05:50:41.560Z,98586.52
2018-09-08T05:53:13.906Z,98583.69
2018-09-08T05:55:46.208Z,98584.59
2018-09-08T05:58:18.580Z,98579.27
2018-09-08T06:00:50.874Z,98586.67
2018-09-08T06:03:23.240Z,98589.50
2018-09-08T06:05:55.697Z,98584.86
2018-09-08T06:08:28.080Z,98591.44
2018-09-08T06:11:00.405Z,98591.69
2018-09-08T06:13:32.788Z,98585.25
2018-09-08T06:16:05.137Z,98591.69
2018-09-08T06:18:37.475Z,98592.47
2018-09-08T06:21:09.770Z,98590.98
2018-09-08T06:23:42.195Z,98586.28
2018-09-08T06:26:14.492Z,98584.95
2018-09-08T06:28:46.903Z,98585.12
2018-09-08T06:31:19.148Z,98582.70
2018-09-08T06:33:51.454Z,98581.60
2018-09-08T06:36:23.747Z,98582.23
2018-09-08T06:38:56.056Z,98587.33
2018-09-08T06:41:28.325Z,98573.30
2018-09-08T06:44:00.636Z,98570.57
2018-09-08T06:46:33.108Z,98575.77
2018-09-08T06:49:05.752Z,98582.02
2018-09-08T06:51:38.028Z,98578.78
2018-09-08T06:54:10.368Z,98581.02
2018-09-08T06:56:42.687Z,98585.78
2018-09-08T06:59:14.996Z,98584.23
2018-09-08T07:01:47.273Z,98587.09
2018-09-08T07:04:19.614Z,98587.45
2018-09-08T07:06:52.588Z,98590.81
2018-09-08T07:09:24.900Z,98591.86
2018-09-08T07:15:04.462Z,98592.16
2018-09-08T07:18:17.985Z,98585.75
2018-09-08T07:21:03.843Z,98585.92
2018-09-08T07:23:47.093Z,98593.70
2018-09-08T07:26:44.441Z,98595.69
2018-09-08T07:29:19.824Z,98595.89
2018-09-08T07:31:53.097Z,98597.19
2018-09-08T07:34:27.471Z,98594.29
2018-09-08T07:37:03.303Z,98596.59
2018-09-08T07:39:35.978Z,98594.35
2018-09-08T07:42:17.571Z,98601.24
2018-09-08T07:44:54.052Z,98601.67
2018-09-08T07:47:30.614Z,98607.36
2018-09-08T07:50:08.651Z,98613.42
2018-09-08T07:52:47.895Z,98612.88
2018-09-08T07:55:22.488Z,98609.39
2018-09-08T07:57:54.963Z,98599.27
2018-09-08T08:00:33.453Z,98604.55
2018-09-08T08:03:09.276Z,98604.81
2018-09-08T08:05:45.636Z,98607.91
2018-09-08T08:08:21.120Z,98605.55
2018-09-08T08:10:57.533Z,98606.89
2018-09-08T08:13:34.952Z,98603.81
2018-09-08T08:16:12.516Z,98610.08
2018-09-08T08:18:50.740Z,98612.55
2018-09-08T08:21:28.940Z,98613.16
2018-09-08T08:26:49.800Z,98612.92
2018-09-08T08:29:23.984Z,98611.87
2018-09-08T08:31:57.600Z,98601.32
2018-09-08T08:34:30.238Z,98602.50
2018-09-08T08:37:04.014Z,98602.94
2018-09-08T08:39:40.012Z,98613.63
2018-09-08T08:42:13.109Z,98604.13
2018-09-08T08:44:46.339Z,98607.89
2018-09-08T08:47:18.999Z,98604.24
2018-09-08T08:50:03.025Z,98608.53
2018-09-08T08:52:47.056Z,98613.37
2018-09-08T08:55:19.839Z,98610.44
2018-09-08T08:57:54.572Z,98611.94
2018-09-08T09:00:28.894Z,98604.42
2018-09-08T09:03:02.635Z,98606.66
2018-09-08T09:05:35.770Z,98608.02
2018-09-08T09:08:08.564Z,98609.13
2018-09-08T09:10:41.017Z,98606.47
2018-09-08T09:13:13.446Z,98600.87
2018-09-08T09:15:46.064Z,98597.21
2018-09-08T09:18:34.249Z,98600.11
2018-09-08T09:21:17.894Z,98597.95
2018-09-08T09:25:02.091Z,98597.89
2018-09-08T09:27:35.905Z,98592.91
2018-09-08T09:30:08.780Z,98589.83
2018-09-08T09:32:41.102Z,98586.04
2018-09-08T09:35:14.953Z,98586.09
2018-09-08T09:37:47.301Z,98579.14
2018-09-08T09:40:20.858Z,98576.91
2018-09-08T09:42:54.217Z,98575.05
2018-09-08T09:45:27.678Z,98572.88
2018-09-08T09:48:01.700Z,98575.66
2018-09-08T09:50:36.152Z,98570.92
2018-09-08T09:53:14.104Z,98578.73
2018-09-08T09:55:49.611Z,98573.25
2018-09-08T09:58:25.275Z,98576.03
2018-09-08T10:01:09.313Z,98567.66
2018-09-08T10:03:45.116Z,98573.88
2018-09-08T10:10:15.474Z,98567.89
2018-09-08T10:12:54.845Z,98570.78
2018-09-08T10:15:27.237Z,98568.17
2018-09-08T10:17:59.634Z,98566.19
2018-09-08T10:20:31.980Z,98568.41
2018-09-08T10:23:04.398Z,98568.11
2018-09-08T10:25:36.740Z,98559.05
2018-09-08T10:28:09.149Z,98554.58
2018-09-08T10:30:41.455Z,98545.55
2018-09-08T10:33:13.869Z,98545.11
2018-09-08T10:35:46.225Z,98545.16
2018-09-08T10:38:18.540Z,98542.14
2018-09-08T10:40:50.848Z,98538.29
2018-09-08T10:43:23.161Z,98535.49
2018-09-08T10:45:55.459Z,98534.02
2018-09-08T10:48:27.852Z,98534.80
2018-09-08T10:51:17.928Z,98533.34
2018-09-08T10:53:50.320Z,98519.00
2018-09-08T10:56:22.655Z,98524.06
2018-09-08T10:58:54.959Z,98524.02
2018-09-08T11:01:27.349Z,98521.77
2018-09-08T11:03:59.671Z,98512.88
2018-09-08T11:06:31.991Z,98506.84
2018-09-08T11:09:05.508Z,98513.79
2018-09-08T11:11:37.837Z,98511.57
2018-09-08T11:14:10.214Z,98508.14
2018-09-08T11:16:42.556Z,98514.72
2018-09-08T11:19:15.053Z,98512.05
2018-09-08T11:21:47.336Z,98499.30
2018-09-08T11:24:19.627Z,98499.40
2018-09-08T11:26:51.941Z,98505.98
2018-09-08T11:29:24.287Z,98505.54
2018-09-08T11:31:56.652Z,98503.47
2018-09-08T11:34:29.049Z,98503.89
2018-09-08T11:37:01.342Z,98498.44
2018-09-08T11:39:33.708Z,98500.73
2018-09-08T11:42:06.049Z,98506.57
2018-09-08T11:44:38.414Z,98505.27
2018-09-08T11:47:10.716Z,98501.20
2018-09-08T11:49:43.095Z,98496.48
2018-09-08T11:52:15.358Z,98495.95
2018-09-08T11:54:47.672Z,98493.88
2018-09-08T11:57:20.021Z,98491.33
2018-09-08T11:59:52.444Z,98488.66
2018-09-08T12:02:24.845Z,98483.89
2018-09-08T12:04:57.293Z,98480.17
2018-09-08T12:07:29.720Z,98483.74
2018-09-08T12:10:02.138Z,98472.58
2018-09-08T12:12:34.492Z,98474.17
2018-09-08T12:15:06.846Z,98475.25
2018-09-08T12:17:39.213Z,98465.64
2018-09-08T12:20:11.576Z,98471.86
2018-09-08T12:22:44.004Z,98461.77
2018-09-08T12:25:16.454Z,98459.63
2018-09-08T12:27:48.797Z,98456.84
2018-09-08T12:30:21.224Z,98456.50
2018-09-08T12:32:53.601Z,98454.23
2018-09-08T12:35:25.959Z,98459.25
2018-09-08T12:37:58.311Z,98454.80
2018-09-08T12:40:30.660Z,98449.44
2018-09-08T12:43:03.004Z,98448.67
2018-09-08T12:45:35.373Z,98446.89
2018-09-08T12:48:07.801Z,98444.80
2018-09-08T12:50:40.241Z,98443.92
2018-09-08T12:53:12.645Z,98447.84
2018-09-08T12:55:44.994Z,98438.32
2018-09-08T12:58:17.365Z,98443.55
2018-09-08T13:00:49.766Z,98435.36
2018-09-08T13:03:22.138Z,98438.02
2018-09-08T13:05:54.524Z,98434.58
2018-09-08T13:08:26.945Z,98438.45
2018-09-08T13:10:59.295Z,98433.53
2018-09-08T13:13:31.699Z,98424.22
2018-09-08T13:16:04.001Z,98421.57
2018-09-08T13:18:36.420Z,98418.09
2018-09-08T13:21:08.819Z,98422.05
2018-09-08T13:23:41.264Z,98408.87
2018-09-08T13:26:13.641Z,98411.40
2018-09-08T13:28:45.982Z,98407.75
2018-09-08T13:31:18.325Z,98408.28
2018-09-08T13:33:50.703Z,98404.57
2018-09-08T13:36:23.129Z,98397.17
2018-09-08T13:38:55.532Z,98400.92
2018-09-08T13:41:27.917Z,98398.75
2018-09-08T13:44:00.270Z,98404.84
2018-09-08T13:46:32.576Z,98405.70
2018-09-08T13:49:04.965Z,98411.75
2018-09-08T13:51:37.273Z,98413.88
2018-09-08T13:54:09.618Z,98409.48
2018-09-08T13:56:41.966Z,98408.58
2018-09-08T13:59:14.313Z,98404.27
2018-09-08T14:01:46.670Z,98405.70
2018-09-08T14:04:19.092Z,98403.83
2018-09-08T14:06:51.398Z,98406.66
2018-09-08T14:09:23.761Z,98404.18
2018-09-08T14:11:56.076Z,98401.30
2018-09-08T14:14:28.478Z,98402.20
2018-09-08T14:17:00.789Z,98403.19
2018-09-08T14:19:33.196Z,98401.34
2018-09-08T14:22:05.688Z,98404.09
2018-09-08T14:24:38.031Z,98400.72
2018-09-08T14:27:10.539Z,98386.77
2018-09-08T14:29:42.869Z,98385.13
2018-09-08T14:32:15.246Z,98385.56
2018-09-08T14:34:47.589Z,98379.55
2018-09-08T14:37:19.919Z,98378.61
2018-09-08T14:39:52.335Z,98384.59
2018-09-08T14:42:24.705Z,98390.24
2018-09-08T14:44:57.081Z,98380.92
2018-09-08T14:47:36.302Z,98383.78
2018-09-08T14:50:08.660Z,98381.52
2018-09-08T14:52:40.994Z,98377.13
2018-09-08T14:55:13.364Z,98376.34
2018-09-08T14:57:45.721Z,98378.87
2018-09-08T15:00:18.272Z,98381.87
2018-09-08T15:02:50.630Z,98384.00
2018-09-08T15:05:22.986Z,98382.38
2018-09-08T15:07:55.302Z,98385.98
2018-09-08T15:10:27.664Z,98381.39
2018-09-08T15:13:00.007Z,98376.61
2018-09-08T15:15:32.374Z,98386.18
2018-09-08T15:18:04.999Z,98379.88
2018-09-08T15:20:37.329Z,98376.92
2018-09-08T15:23:09.757Z,98382.88
2018-09-08T15:25:42.166Z,98377.61
2018-09-08T15:28:14.525Z,98379.70
2018-09-08T15:30:46.919Z,98376.14
2018-09-08T15:33:19.315Z,98377.01
2018-09-08T15:35:51.675Z,98370.05
2018-09-08T15:38:24.428Z,98375.62
2018-09-08T15:40:56.808Z,98368.70
2018-09-08T15:43:29.197Z,98372.09
2018-09-08T15:46:01.551Z,98374.09
2018-09-08T15:48:34.069Z,98377.63
2018-09-08T15:51:06.413Z,98374.97
2018-09-08T15:53:38.857Z,98377.23
2018-09-08T15:56:11.225Z,98386.91
2018-09-08T15:58:43.709Z,98387.13
2018-09-08T16:01:16.017Z,98385.30
2018-09-08T16:03:48.372Z,98387.41
2018-09-08T16:06:20.727Z,98384.70
2018-09-08T16:08:53.234Z,98388.09
2018-09-08T16:11:25.766Z,98378.05
2018-09-08T16:13:58.074Z,98377.95
2018-09-08T16:16:30.396Z,98376.16
2018-09-08T16:19:02.770Z,98370.61
2018-09-08T16:21:35.092Z,98375.72
2018-09-08T16:24:07.448Z,98377.75
2018-09-08T16:26:39.743Z,98373.20
2018-09-08T16:29:18.878Z,98378.41
2018-09-08T16:31:51.236Z,98378.36
2018-09-08T16:34:23.693Z,98374.40
2018-09-08T16:36:55.988Z,98371.73
2018-09-08T16:39:28.402Z,98374.72
2018-09-08T16:42:00.816Z,98374.28
2018-09-08T16:44:33.155Z,98368.11
2018-09-08T16:47:05.492Z,98373.31
2018-09-08T16:49:37.818Z,98372.43
2018-09-08T16:52:10.243Z,98369.77
2018-09-08T16:54:42.525Z,98375.28
2018-09-08T16:57:14.859Z,98376.09
2018-09-08T16:59:47.255Z,98374.68
2018-09-08T17:02:19.531Z,98378.09
2018-09-08T17:04:52.029Z,98376.23
2018-09-08T17:07:24.350Z,98383.45
2018-09-08T17:09:56.718Z,98375.02
2018-09-08T17:12:29.041Z,98377.08
2018-09-08T17:15:01.398Z,98378.25
2018-09-08T17:17:33.789Z,98379.48
2018-09-08T17:20:06.196Z,98372.81
2018-09-08T17:22:38.539Z,98382.27
2018-09-08T17:25:10.914Z,98381.21
2018-09-08T17:27:43.263Z,98382.33
2018-09-08T17:30:15.664Z,98386.84
2018-09-08T17:32:48.023Z,98389.70
2018-09-08T17:35:20.372Z,98387.75
2018-09-08T17:37:52.747Z,98394.17
2018-09-08T17:40:25.077Z,98394.92
2018-09-08T17:42:57.849Z,98393.33
2018-09-08T17:45:30.198Z,98394.93
2018-09-08T17:48:02.550Z,98395.20
2018-09-08T17:50:34.971Z,98406.77
2018-09-08T17:53:07.361Z,98405.23
2018-09-08T17:55:39.769Z,98405.80
2018-09-08T17:58:12.159Z,98409.42
2018-09-08T18:00:44.579Z,98411.04
2018-09-08T18:03:16.931Z,98412.15
2018-09-08T18:05:49.460Z,98413.48
2018-09-08T18:08:25.712Z,98415.41
2018-09-08T18:10:58.053Z,98420.03
2018-09-08T18:13:30.413Z,98419.83
2018-09-08T18:16:02.862Z,98421.26
2018-09-08T18:18:35.217Z,98420.45
2018-09-08T18:21:07.596Z,98424.85
2018-09-08T18:23:40.812Z,98434.47
2018-09-08T18:26:13.193Z,98431.14
2018-09-08T18:28:45.569Z,98434.88
2018-09-08T18:31:17.918Z,98434.59
2018-09-08T18:33:50.423Z,98433.11
2018-09-08T18:36:23.477Z,98439.91
2018-09-08T18:38:55.822Z,98438.45
2018-09-08T18:41:28.359Z,98436.13
2018-09-08T18:44:00.625Z,98451.02
2018-09-08T18:46:32.945Z,98445.22
2018-09-08T18:49:05.332Z,98447.47
2018-09-08T18:51:37.716Z,98448.46
2018-09-08T18:54:10.184Z,98448.71
2018-09-08T18:56:42.508Z,98447.14
2018-09-08T18:59:14.872Z,98459.36
2018-09-08T19:01:47.206Z,98460.16
2018-09-08T19:04:19.577Z,98461.35
2018-09-08T19:06:52.705Z,98464.28
2018-09-08T19:09:25.179Z,98461.02
2018-09-08T19:11:57.451Z,98468.72
2018-09-08T19:14:35.306Z,98468.67
2018-09-08T19:17:07.665Z,98464.27
2018-09-08T19:19:40.102Z,98475.86
2018-09-08T19:22:12.444Z,98472.52
2018-09-08T19:24:44.845Z,98476.25
2018-09-08T19:27:17.202Z,98480.89
2018-09-08T19:29:49.586Z,98477.20
2018-09-08T19:32:22.035Z,98476.31
2018-09-08T19:35:00.061Z,98478.05
2018-09-08T19:37:34.517Z,98483.69
2018-09-08T19:40:12.703Z,98488.44
2018-09-08T19:42:45.111Z,98488.02
2018-09-08T19:45:17.434Z,98489.61
2018-09-08T19:47:55.358Z,98490.66
2018-09-08T19:50:27.697Z,98494.45
2018-09-08T19:53:05.680Z,98490.00
2018-09-08T19:55:38.078Z,98488.38
2018-09-08T19:59:15.772Z,98489.63
2018-09-08T20:01:48.129Z,98498.21
2018-09-08T20:04:20.565Z,98493.67
2018-09-08T20:06:52.910Z,98493.29
2018-09-08T20:09:25.206Z,98498.16
2018-09-08T20:11:57.618Z,98498.66
2018-09-08T20:14:29.904Z,98507.48
2018-09-08T20:17:02.266Z,98511.36
2018-09-08T20:19:34.641Z,98509.19
2018-09-08T20:22:08.024Z,98505.58
2018-09-08T20:24:40.394Z,98501.64
2018-09-08T20:27:12.739Z,98503.41
2018-09-08T20:29:45.101Z,98503.59
2018-09-08T20:32:17.461Z,98505.52
2018-09-08T20:34:49.864Z,98500.89
2018-09-08T20:37:22.217Z,98507.41
2018-09-08T20:39:54.549Z,98502.99
2018-09-08T20:42:26.917Z,98499.68
2018-09-08T20:44:59.288Z,98508.95
2018-09-08T20:47:31.729Z,98502.64
2018-09-08T20:50:04.235Z,98509.23
2018-09-08T20:52:36.528Z,98509.97
2018-09-08T20:55:08.906Z,98508.95
2018-09-08T20:57:41.209Z,98508.41
2018-09-08T21:00:13.592Z,98510.16
2018-09-08T21:02:45.886Z,98503.77
2018-09-08T21:05:18.316Z,98502.88
2018-09-08T21:07:50.769Z,98499.61
2018-09-08T21:10:23.086Z,98498.38
2018-09-08T21:12:55.421Z,98498.91
2018-09-08T21:15:27.836Z,98495.55
2018-09-08T21:18:00.153Z,98494.34
2018-09-08T21:20:32.505Z,98498.28
2018-09-08T21:23:04.917Z,98500.10
2018-09-08T21:25:37.340Z,98496.66
2018-09-08T21:28:09.629Z,98490.97
2018-09-08T21:30:42.190Z,98488.66
2018-09-08T21:33:14.550Z,98492.90
2018-09-08T21:35:46.962Z,98490.23
2018-09-08T21:38:19.339Z,98493.19
2018-09-08T21:40:51.684Z,98493.40
2018-09-08T21:43:24.016Z,98496.03
2018-09-08T21:45:56.415Z,98483.00
2018-09-08T21:48:28.708Z,98486.69
2018-09-08T21:51:01.156Z,98488.44
2018-09-08T21:53:33.514Z,98488.70
2018-09-08T21:56:05.992Z,98492.88
2018-09-08T21:58:38.333Z,98495.87
2018-09-08T22:01:16.510Z,98494.58
2018-09-08T22:03:48.902Z,98503.33
2018-09-08T22:06:21.928Z,98497.00
2018-09-08T22:08:54.274Z,98495.41
2018-09-08T22:11:26.644Z,98498.72
2018-09-08T22:13:58.940Z,98501.29
2018-09-08T22:16:31.317Z,98496.47
2018-09-08T22:19:03.626Z,98502.13
2018-09-08T22:21:35.973Z,98498.83
2018-09-08T22:24:08.455Z,98503.47
2018-09-08T22:26:40.738Z,98499.55
2018-09-08T22:29:13.067Z,98507.13
2018-09-08T22:31:45.360Z,98504.96
2018-09-08T22:34:17.714Z,98510.48
2018-09-08T22:36:50.041Z,98509.55
2018-09-08T22:39:22.352Z,98517.27
2018-09-08T22:41:54.655Z,98513.41
2018-09-08T22:44:27.007Z,98514.56
2018-09-08T22:46:59.331Z,98516.09
2018-09-08T22:49:31.629Z,98516.50
2018-09-08T22:52:03.952Z,98524.30
2018-09-08T22:54:36.253Z,98534.75
2018-09-08T22:57:08.623Z,98536.98
2018-09-08T22:59:40.903Z,98539.39
2018-09-08T23:02:13.202Z,98536.27
2018-09-08T23:04:45.749Z,98531.50
2018-09-08T23:07:18.089Z,98538.11
2018-09-08T23:09:50.425Z,98542.75
2018-09-08T23:12:22.806Z,98552.89
2018-09-08T23:14:55.157Z,98548.06
2018-09-08T23:17:27.448Z,98542.59
2018-09-08T23:19:59.743Z,98547.27
2018-09-08T23:22:32.052Z,98549.89
2018-09-08T23:25:04.436Z,98546.73
2018-09-08T23:27:36.745Z,98545.90
2018-09-08T23:30:09.296Z,98546.41
2018-09-08T23:32:41.665Z,98548.64
2018-09-08T23:35:13.932Z,98545.13
2018-09-08T23:37:46.235Z,98544.95
2018-09-08T23:40:18.567Z,98547.50
2018-09-08T23:42:50.874Z,98542.93
2018-09-08T23:45:23.205Z,98551.52
2018-09-08T23:47:55.551Z,98543.64
2018-09-08T23:50:27.858Z,98547.09
2018-09-08T23:53:00.161Z,98545.46
2018-09-08T23:55:32.490Z,98546.58
2018-09-08T23:58:04.791Z,98550.91
